sensor_id;sensor_type;location;lat;lon;timestamp;P1;durP1;ratioP1;P2;durP2;ratioP2
31482;SDS011;18103;52.246;8.052;2023-02-15T00:01:30;24.47;;;10.33;;
31482;SDS011;18103;52.246;8.052;2023-02-15T00:03:56;21.23;;;9.53;;
31482;SDS011;18103;52.246;8.052;2023-02-15T00:06:21;23.73;;;10.17;;
31482;SDS011;18103;52.246;8.052;2023-02-15T00:08:47;20.33;;;10.67;;
31482;SDS011;18103;52.246;8.052;2023-02-15T00:11:14;23.10;;;10.43;;
31482;SDS011;18103;52.246;8.052;2023-02-15T00:13:41;23.77;;;10.43;;
31482;SDS011;18103;52.246;8.052;2023-02-15T00:16:07;20.17;;;9.47;;
31482;SDS011;18103;52.246;8.052;2023-02-15T00:18:40;19.30;;;9.53;;
31482;SDS011;18103;52.246;8.052;2023-02-15T00:21:06;20.13;;;9.30;;
31482;SDS011;18103;52.246;8.052;2023-02-15T00:23:33;24.33;;;10.83;;
31482;SDS011;18103;52.246;8.052;2023-02-15T00:26:03;18.87;;;9.83;;
31482;SDS011;18103;52.246;8.052;2023-02-15T00:28:37;23.13;;;10.03;;
31482;SDS011;18103;52.246;8.052;2023-02-15T00:31:07;18.23;;;9.63;;
31482;SDS011;18103;52.246;8.052;2023-02-15T00:33:34;26.70;;;10.60;;
31482;SDS011;18103;52.246;8.052;2023-02-15T00:36:00;23.77;;;10.60;;
31482;SDS011;18103;52.246;8.052;2023-02-15T00:38:29;18.43;;;10.33;;
31482;SDS011;18103;52.246;8.052;2023-02-15T00:40:56;18.37;;;9.43;;
31482;SDS011;18103;52.246;8.052;2023-02-15T00:43:23;20.63;;;9.90;;
31482;SDS011;18103;52.246;8.052;2023-02-15T00:45:48;22.40;;;10.30;;
31482;SDS011;18103;52.246;8.052;2023-02-15T00:48:14;22.33;;;10.30;;
31482;SDS011;18103;52.246;8.052;2023-02-15T00:50:39;19.83;;;9.13;;
31482;SDS011;18103;52.246;8.052;2023-02-15T00:53:05;22.03;;;10.60;;
31482;SDS011;18103;52.246;8.052;2023-02-15T00:55:30;23.67;;;10.00;;
31482;SDS011;18103;52.246;8.052;2023-02-15T00:57:56;26.93;;;9.10;;
31482;SDS011;18103;52.246;8.052;2023-02-15T01:00:21;16.87;;;9.47;;
31482;SDS011;18103;52.246;8.052;2023-02-15T01:02:46;24.37;;;9.90;;
31482;SDS011;18103;52.246;8.052;2023-02-15T01:05:12;22.97;;;10.67;;
31482;SDS011;18103;52.246;8.052;2023-02-15T01:07:37;15.97;;;9.10;;
31482;SDS011;18103;52.246;8.052;2023-02-15T01:10:04;18.60;;;8.87;;
31482;SDS011;18103;52.246;8.052;2023-02-15T01:12:31;16.83;;;9.20;;
31482;SDS011;18103;52.246;8.052;2023-02-15T01:14:56;17.40;;;9.33;;
31482;SDS011;18103;52.246;8.052;2023-02-15T01:17:21;23.20;;;9.97;;
31482;SDS011;18103;52.246;8.052;2023-02-15T01:19:47;23.17;;;9.93;;
31482;SDS011;18103;52.246;8.052;2023-02-15T01:22:12;14.27;;;8.20;;
31482;SDS011;18103;52.246;8.052;2023-02-15T01:24:37;18.37;;;10.03;;
31482;SDS011;18103;52.246;8.052;2023-02-15T01:27:03;24.60;;;9.47;;
31482;SDS011;18103;52.246;8.052;2023-02-15T01:29:28;20.53;;;9.47;;
31482;SDS011;18103;52.246;8.052;2023-02-15T01:31:54;17.90;;;9.27;;
31482;SDS011;18103;52.246;8.052;2023-02-15T01:34:19;24.73;;;9.33;;
31482;SDS011;18103;52.246;8.052;2023-02-15T01:36:44;17.20;;;8.10;;
31482;SDS011;18103;52.246;8.052;2023-02-15T01:39:10;18.60;;;9.00;;
31482;SDS011;18103;52.246;8.052;2023-02-15T01:41:36;21.07;;;9.50;;
31482;SDS011;18103;52.246;8.052;2023-02-15T01:44:01;17.77;;;8.83;;
31482;SDS011;18103;52.246;8.052;2023-02-15T01:49:09;19.43;;;9.90;;
31482;SDS011;18103;52.246;8.052;2023-02-15T01:51:39;16.50;;;9.63;;
31482;SDS011;18103;52.246;8.052;2023-02-15T01:54:27;21.20;;;9.57;;
31482;SDS011;18103;52.246;8.052;2023-02-15T01:56:57;16.50;;;9.00;;
31482;SDS011;18103;52.246;8.052;2023-02-15T01:59:26;23.97;;;9.50;;
31482;SDS011;18103;52.246;8.052;2023-02-15T02:01:52;22.80;;;10.13;;
31482;SDS011;18103;52.246;8.052;2023-02-15T02:04:29;20.23;;;8.77;;
31482;SDS011;18103;52.246;8.052;2023-02-15T02:07:00;18.17;;;9.50;;
31482;SDS011;18103;52.246;8.052;2023-02-15T02:09:25;21.03;;;9.10;;
31482;SDS011;18103;52.246;8.052;2023-02-15T02:11:51;20.83;;;9.23;;
31482;SDS011;18103;52.246;8.052;2023-02-15T02:14:19;21.30;;;9.03;;
31482;SDS011;18103;52.246;8.052;2023-02-15T02:37:00;23.23;;;9.20;;
31482;SDS011;18103;52.246;8.052;2023-02-15T02:39:35;17.63;;;9.87;;
31482;SDS011;18103;52.246;8.052;2023-02-15T02:42:20;20.47;;;9.10;;
31482;SDS011;18103;52.246;8.052;2023-02-15T02:47:34;23.47;;;8.57;;
31482;SDS011;18103;52.246;8.052;2023-02-15T02:50:25;16.80;;;8.10;;
31482;SDS011;18103;52.246;8.052;2023-02-15T02:52:54;20.90;;;9.80;;
31482;SDS011;18103;52.246;8.052;2023-02-15T02:55:27;17.63;;;9.10;;
31482;SDS011;18103;52.246;8.052;2023-02-15T02:58:25;20.73;;;7.70;;
31482;SDS011;18103;52.246;8.052;2023-02-15T03:01:06;23.57;;;9.10;;
31482;SDS011;18103;52.246;8.052;2023-02-15T03:06:28;17.93;;;8.23;;
31482;SDS011;18103;52.246;8.052;2023-02-15T03:08:58;19.67;;;8.60;;
31482;SDS011;18103;52.246;8.052;2023-02-15T03:11:31;16.60;;;8.07;;
31482;SDS011;18103;52.246;8.052;2023-02-15T03:13:57;17.83;;;8.23;;
31482;SDS011;18103;52.246;8.052;2023-02-15T03:16:23;18.47;;;8.50;;
31482;SDS011;18103;52.246;8.052;2023-02-15T03:19:00;13.60;;;7.77;;
31482;SDS011;18103;52.246;8.052;2023-02-15T03:24:10;15.40;;;8.13;;
31482;SDS011;18103;52.246;8.052;2023-02-15T03:26:39;17.73;;;8.40;;
31482;SDS011;18103;52.246;8.052;2023-02-15T03:29:10;14.50;;;8.17;;
31482;SDS011;18103;52.246;8.052;2023-02-15T03:31:38;18.23;;;9.17;;
31482;SDS011;18103;52.246;8.052;2023-02-15T03:34:07;20.17;;;8.23;;
31482;SDS011;18103;52.246;8.052;2023-02-15T03:39:35;16.57;;;7.87;;
31482;SDS011;18103;52.246;8.052;2023-02-15T03:45:04;14.37;;;8.40;;
31482;SDS011;18103;52.246;8.052;2023-02-15T03:47:37;20.83;;;8.53;;
31482;SDS011;18103;52.246;8.052;2023-02-15T03:52:55;18.37;;;7.83;;
31482;SDS011;18103;52.246;8.052;2023-02-15T03:55:23;15.83;;;7.77;;
31482;SDS011;18103;52.246;8.052;2023-02-15T03:57:49;14.80;;;7.33;;
31482;SDS011;18103;52.246;8.052;2023-02-15T04:00:34;15.00;;;7.17;;
31482;SDS011;18103;52.246;8.052;2023-02-15T04:05:58;18.43;;;7.83;;
31482;SDS011;18103;52.246;8.052;2023-02-15T04:08:25;20.00;;;8.13;;
31482;SDS011;18103;52.246;8.052;2023-02-15T04:11:10;18.67;;;8.10;;
31482;SDS011;18103;52.246;8.052;2023-02-15T04:13:36;20.27;;;8.67;;
31482;SDS011;18103;52.246;8.052;2023-02-15T04:16:01;18.93;;;9.03;;
31482;SDS011;18103;52.246;8.052;2023-02-15T04:18:34;17.70;;;7.97;;
31482;SDS011;18103;52.246;8.052;2023-02-15T04:21:21;16.23;;;6.97;;
31482;SDS011;18103;52.246;8.052;2023-02-15T04:24:06;15.17;;;7.13;;
31482;SDS011;18103;52.246;8.052;2023-02-15T04:26:51;17.50;;;7.57;;
31482;SDS011;18103;52.246;8.052;2023-02-15T04:29:18;17.10;;;7.73;;
31482;SDS011;18103;52.246;8.052;2023-02-15T04:31:47;18.93;;;7.57;;
31482;SDS011;18103;52.246;8.052;2023-02-15T04:34:12;14.90;;;7.97;;
31482;SDS011;18103;52.246;8.052;2023-02-15T04:36:38;16.00;;;7.53;;
31482;SDS011;18103;52.246;8.052;2023-02-15T04:39:05;17.90;;;8.30;;
31482;SDS011;18103;52.246;8.052;2023-02-15T04:41:31;19.23;;;8.63;;
31482;SDS011;18103;52.246;8.052;2023-02-15T04:43:57;17.13;;;8.60;;
31482;SDS011;18103;52.246;8.052;2023-02-15T04:46:22;18.40;;;8.20;;
31482;SDS011;18103;52.246;8.052;2023-02-15T04:48:48;18.93;;;7.83;;
31482;SDS011;18103;52.246;8.052;2023-02-15T04:51:13;18.53;;;8.97;;
31482;SDS011;18103;52.246;8.052;2023-02-15T04:53:39;18.00;;;7.83;;
31482;SDS011;18103;52.246;8.052;2023-02-15T04:56:04;20.87;;;8.47;;
31482;SDS011;18103;52.246;8.052;2023-02-15T04:58:30;17.00;;;8.13;;
31482;SDS011;18103;52.246;8.052;2023-02-15T05:00:56;17.97;;;7.20;;
31482;SDS011;18103;52.246;8.052;2023-02-15T05:03:22;17.10;;;8.60;;
31482;SDS011;18103;52.246;8.052;2023-02-15T05:05:48;19.37;;;9.27;;
31482;SDS011;18103;52.246;8.052;2023-02-15T05:08:13;16.90;;;8.07;;
31482;SDS011;18103;52.246;8.052;2023-02-15T05:10:39;19.73;;;7.97;;
31482;SDS011;18103;52.246;8.052;2023-02-15T05:13:04;17.43;;;8.97;;
31482;SDS011;18103;52.246;8.052;2023-02-15T05:15:30;21.03;;;8.70;;
31482;SDS011;18103;52.246;8.052;2023-02-15T05:17:55;18.23;;;8.17;;
31482;SDS011;18103;52.246;8.052;2023-02-15T05:20:20;20.87;;;9.10;;
31482;SDS011;18103;52.246;8.052;2023-02-15T05:22:46;16.70;;;7.77;;
31482;SDS011;18103;52.246;8.052;2023-02-15T05:25:11;17.87;;;7.77;;
31482;SDS011;18103;52.246;8.052;2023-02-15T05:27:55;22.30;;;7.40;;
31482;SDS011;18103;52.246;8.052;2023-02-15T05:30:39;21.97;;;8.37;;
31482;SDS011;18103;52.246;8.052;2023-02-15T05:33:05;24.13;;;8.47;;
31482;SDS011;18103;52.246;8.052;2023-02-15T05:35:31;16.20;;;9.03;;
31482;SDS011;18103;52.246;8.052;2023-02-15T05:37:57;24.93;;;9.73;;
31482;SDS011;18103;52.246;8.052;2023-02-15T05:40:22;20.50;;;9.53;;
31482;SDS011;18103;52.246;8.052;2023-02-15T05:42:48;24.03;;;9.30;;
31482;SDS011;18103;52.246;8.052;2023-02-15T05:45:13;19.47;;;8.23;;
31482;SDS011;18103;52.246;8.052;2023-02-15T05:47:39;16.97;;;8.47;;
31482;SDS011;18103;52.246;8.052;2023-02-15T05:50:04;19.20;;;7.37;;
31482;SDS011;18103;52.246;8.052;2023-02-15T05:52:31;16.43;;;7.40;;
31482;SDS011;18103;52.246;8.052;2023-02-15T05:54:56;14.90;;;6.73;;
31482;SDS011;18103;52.246;8.052;2023-02-15T05:57:23;16.47;;;8.37;;
31482;SDS011;18103;52.246;8.052;2023-02-15T05:59:48;16.53;;;7.10;;
31482;SDS011;18103;52.246;8.052;2023-02-15T06:02:13;15.73;;;8.03;;
31482;SDS011;18103;52.246;8.052;2023-02-15T06:04:39;16.83;;;7.00;;
31482;SDS011;18103;52.246;8.052;2023-02-15T06:07:04;20.20;;;7.10;;
31482;SDS011;18103;52.246;8.052;2023-02-15T06:09:29;11.70;;;6.20;;
31482;SDS011;18103;52.246;8.052;2023-02-15T06:11:55;17.77;;;7.67;;
31482;SDS011;18103;52.246;8.052;2023-02-15T06:14:20;17.43;;;6.90;;
31482;SDS011;18103;52.246;8.052;2023-02-15T06:16:46;20.43;;;6.77;;
31482;SDS011;18103;52.246;8.052;2023-02-15T06:19:11;15.07;;;7.40;;
31482;SDS011;18103;52.246;8.052;2023-02-15T06:21:36;17.10;;;7.60;;
31482;SDS011;18103;52.246;8.052;2023-02-15T06:24:02;13.97;;;6.93;;
31482;SDS011;18103;52.246;8.052;2023-02-15T06:26:27;24.23;;;8.37;;
31482;SDS011;18103;52.246;8.052;2023-02-15T06:28:53;15.97;;;7.10;;
31482;SDS011;18103;52.246;8.052;2023-02-15T06:31:18;14.53;;;7.00;;
31482;SDS011;18103;52.246;8.052;2023-02-15T06:33:44;15.70;;;7.20;;
31482;SDS011;18103;52.246;8.052;2023-02-15T06:36:09;20.77;;;7.97;;
31482;SDS011;18103;52.246;8.052;2023-02-15T06:38:34;14.97;;;8.10;;
31482;SDS011;18103;52.246;8.052;2023-02-15T06:41:00;15.43;;;6.73;;
31482;SDS011;18103;52.246;8.052;2023-02-15T06:43:25;16.83;;;6.80;;
31482;SDS011;18103;52.246;8.052;2023-02-15T06:45:51;16.13;;;7.00;;
31482;SDS011;18103;52.246;8.052;2023-02-15T06:48:16;16.03;;;6.97;;
31482;SDS011;18103;52.246;8.052;2023-02-15T06:50:41;11.43;;;5.97;;
31482;SDS011;18103;52.246;8.052;2023-02-15T06:53:07;14.27;;;7.50;;
31482;SDS011;18103;52.246;8.052;2023-02-15T06:55:32;15.77;;;6.83;;
31482;SDS011;18103;52.246;8.052;2023-02-15T06:57:57;14.10;;;7.53;;
31482;SDS011;18103;52.246;8.052;2023-02-15T07:00:23;19.60;;;6.70;;
31482;SDS011;18103;52.246;8.052;2023-02-15T07:02:55;18.70;;;7.40;;
31482;SDS011;18103;52.246;8.052;2023-02-15T07:05:22;19.47;;;7.90;;
31482;SDS011;18103;52.246;8.052;2023-02-15T07:07:48;15.10;;;7.50;;
31482;SDS011;18103;52.246;8.052;2023-02-15T07:10:13;17.43;;;7.20;;
31482;SDS011;18103;52.246;8.052;2023-02-15T07:12:39;15.50;;;7.73;;
31482;SDS011;18103;52.246;8.052;2023-02-15T07:15:11;18.10;;;8.20;;
31482;SDS011;18103;52.246;8.052;2023-02-15T07:17:39;12.90;;;6.43;;
31482;SDS011;18103;52.246;8.052;2023-02-15T07:20:06;16.17;;;8.13;;
31482;SDS011;18103;52.246;8.052;2023-02-15T07:22:34;15.25;;;7.90;;
31482;SDS011;18103;52.246;8.052;2023-02-15T07:25:01;20.73;;;8.43;;
31482;SDS011;18103;52.246;8.052;2023-02-15T07:27:27;14.77;;;7.28;;
31482;SDS011;18103;52.246;8.052;2023-02-15T07:29:53;17.17;;;8.13;;
31482;SDS011;18103;52.246;8.052;2023-02-15T07:32:18;18.57;;;7.40;;
31482;SDS011;18103;52.246;8.052;2023-02-15T07:34:43;18.37;;;8.13;;
31482;SDS011;18103;52.246;8.052;2023-02-15T07:37:09;20.03;;;7.00;;
31482;SDS011;18103;52.246;8.052;2023-02-15T07:39:34;19.30;;;8.27;;
31482;SDS011;18103;52.246;8.052;2023-02-15T07:42:00;20.20;;;7.97;;
31482;SDS011;18103;52.246;8.052;2023-02-15T07:44:26;19.47;;;8.10;;
31482;SDS011;18103;52.246;8.052;2023-02-15T07:46:51;18.60;;;7.83;;
31482;SDS011;18103;52.246;8.052;2023-02-15T07:49:16;19.83;;;7.23;;
31482;SDS011;18103;52.246;8.052;2023-02-15T07:51:42;17.77;;;7.97;;
31482;SDS011;18103;52.246;8.052;2023-02-15T07:54:07;19.50;;;8.40;;
31482;SDS011;18103;52.246;8.052;2023-02-15T07:56:33;15.57;;;7.73;;
31482;SDS011;18103;52.246;8.052;2023-02-15T07:58:58;15.53;;;8.53;;
31482;SDS011;18103;52.246;8.052;2023-02-15T08:01:29;19.80;;;7.80;;
31482;SDS011;18103;52.246;8.052;2023-02-15T08:04:03;18.10;;;9.27;;
31482;SDS011;18103;52.246;8.052;2023-02-15T08:06:31;15.63;;;8.03;;
31482;SDS011;18103;52.246;8.052;2023-02-15T08:08:57;16.40;;;7.70;;
31482;SDS011;18103;52.246;8.052;2023-02-15T08:11:27;18.40;;;8.53;;
31482;SDS011;18103;52.246;8.052;2023-02-15T08:14:05;20.23;;;8.40;;
31482;SDS011;18103;52.246;8.052;2023-02-15T08:16:32;17.77;;;7.70;;
31482;SDS011;18103;52.246;8.052;2023-02-15T08:19:21;22.10;;;8.30;;
31482;SDS011;18103;52.246;8.052;2023-02-15T08:21:49;15.53;;;7.80;;
31482;SDS011;18103;52.246;8.052;2023-02-15T08:24:17;21.20;;;7.93;;
31482;SDS011;18103;52.246;8.052;2023-02-15T08:26:45;21.37;;;8.47;;
31482;SDS011;18103;52.246;8.052;2023-02-15T08:29:11;15.80;;;8.67;;
31482;SDS011;18103;52.246;8.052;2023-02-15T08:31:37;19.63;;;9.33;;
31482;SDS011;18103;52.246;8.052;2023-02-15T08:34:03;18.17;;;8.60;;
31482;SDS011;18103;52.246;8.052;2023-02-15T08:36:30;20.17;;;8.93;;
31482;SDS011;18103;52.246;8.052;2023-02-15T08:38:57;23.63;;;8.40;;
31482;SDS011;18103;52.246;8.052;2023-02-15T08:41:24;17.53;;;8.10;;
31482;SDS011;18103;52.246;8.052;2023-02-15T08:43:55;17.00;;;8.07;;
31482;SDS011;18103;52.246;8.052;2023-02-15T08:46:23;18.90;;;7.90;;
31482;SDS011;18103;52.246;8.052;2023-02-15T08:48:50;21.07;;;8.97;;
31482;SDS011;18103;52.246;8.052;2023-02-15T08:51:17;14.87;;;6.97;;
31482;SDS011;18103;52.246;8.052;2023-02-15T08:53:45;19.73;;;8.10;;
31482;SDS011;18103;52.246;8.052;2023-02-15T08:56:14;15.23;;;8.27;;
31482;SDS011;18103;52.246;8.052;2023-02-15T08:58:40;16.80;;;8.10;;
31482;SDS011;18103;52.246;8.052;2023-02-15T09:01:13;16.27;;;7.87;;
31482;SDS011;18103;52.246;8.052;2023-02-15T09:03:43;17.13;;;8.87;;
31482;SDS011;18103;52.246;8.052;2023-02-15T09:06:09;18.33;;;8.30;;
31482;SDS011;18103;52.246;8.052;2023-02-15T09:08:36;16.40;;;8.70;;
31482;SDS011;18103;52.246;8.052;2023-02-15T09:11:35;19.53;;;8.43;;
31482;SDS011;18103;52.246;8.052;2023-02-15T09:13:55;14.40;;;7.27;;
31482;SDS011;18103;52.246;8.052;2023-02-15T09:16:23;15.60;;;7.40;;
31482;SDS011;18103;52.246;8.052;2023-02-15T09:18:50;19.73;;;8.60;;
31482;SDS011;18103;52.246;8.052;2023-02-15T09:21:17;20.47;;;8.57;;
31482;SDS011;18103;52.246;8.052;2023-02-15T09:23:46;16.03;;;7.83;;
31482;SDS011;18103;52.246;8.052;2023-02-15T09:26:14;16.77;;;8.93;;
31482;SDS011;18103;52.246;8.052;2023-02-15T09:28:41;20.37;;;8.47;;
31482;SDS011;18103;52.246;8.052;2023-02-15T09:31:14;16.37;;;6.97;;
31482;SDS011;18103;52.246;8.052;2023-02-15T09:33:42;24.17;;;8.13;;
31482;SDS011;18103;52.246;8.052;2023-02-15T09:36:16;28.63;;;8.77;;
31482;SDS011;18103;52.246;8.052;2023-02-15T09:38:58;18.40;;;8.10;;
31482;SDS011;18103;52.246;8.052;2023-02-15T09:54:04;17.93;;;8.60;;
31482;SDS011;18103;52.246;8.052;2023-02-15T09:56:31;16.30;;;8.67;;
31482;SDS011;18103;52.246;8.052;2023-02-15T09:59:25;18.77;;;9.27;;
31482;SDS011;18103;52.246;8.052;2023-02-15T10:14:03;23.10;;;9.27;;
31482;SDS011;18103;52.246;8.052;2023-02-15T10:27:46;26.17;;;9.70;;
31482;SDS011;18103;52.246;8.052;2023-02-15T10:38:22;15.27;;;8.20;;
31482;SDS011;18103;52.246;8.052;2023-02-15T10:44:04;19.87;;;9.37;;
31482;SDS011;18103;52.246;8.052;2023-02-15T10:51:56;26.20;;;10.40;;
31482;SDS011;18103;52.246;8.052;2023-02-15T10:57:14;31.53;;;11.67;;
31482;SDS011;18103;52.246;8.052;2023-02-15T10:59:53;34.33;;;12.23;;
31482;SDS011;18103;52.246;8.052;2023-02-15T11:02:46;29.23;;;11.23;;
31482;SDS011;18103;52.246;8.052;2023-02-15T11:07:57;26.10;;;12.03;;
31482;SDS011;18103;52.246;8.052;2023-02-15T11:10:32;27.47;;;12.87;;
31482;SDS011;18103;52.246;8.052;2023-02-15T11:13:10;38.27;;;13.70;;
31482;SDS011;18103;52.246;8.052;2023-02-15T11:15:44;29.53;;;14.33;;
31482;SDS011;18103;52.246;8.052;2023-02-15T11:21:17;35.13;;;14.60;;
31482;SDS011;18103;52.246;8.052;2023-02-15T11:23:48;36.70;;;14.67;;
31482;SDS011;18103;52.246;8.052;2023-02-15T11:26:15;31.27;;;15.37;;
31482;SDS011;18103;52.246;8.052;2023-02-15T11:31:47;33.43;;;14.83;;
31482;SDS011;18103;52.246;8.052;2023-02-15T11:36:49;38.47;;;16.63;;
31482;SDS011;18103;52.246;8.052;2023-02-15T11:39:18;35.93;;;15.20;;
31482;SDS011;18103;52.246;8.052;2023-02-15T11:41:52;35.03;;;16.10;;
31482;SDS011;18103;52.246;8.052;2023-02-15T11:47:00;37.43;;;15.33;;
31482;SDS011;18103;52.246;8.052;2023-02-15T11:49:29;27.27;;;14.17;;
31482;SDS011;18103;52.246;8.052;2023-02-15T11:51:56;37.63;;;16.03;;
31482;SDS011;18103;52.246;8.052;2023-02-15T11:54:29;35.57;;;16.90;;
31482;SDS011;18103;52.246;8.052;2023-02-15T11:57:04;39.23;;;15.93;;
31482;SDS011;18103;52.246;8.052;2023-02-15T11:59:40;38.67;;;15.87;;
31482;SDS011;18103;52.246;8.052;2023-02-15T12:02:21;32.47;;;14.33;;
31482;SDS011;18103;52.246;8.052;2023-02-15T12:05:09;28.70;;;14.57;;
31482;SDS011;18103;52.246;8.052;2023-02-15T12:08:02;31.90;;;14.20;;
31482;SDS011;18103;52.246;8.052;2023-02-15T12:10:36;34.50;;;15.60;;
31482;SDS011;18103;52.246;8.052;2023-02-15T12:13:09;33.37;;;15.57;;
31482;SDS011;18103;52.246;8.052;2023-02-15T12:15:37;31.63;;;14.07;;
31482;SDS011;18103;52.246;8.052;2023-02-15T12:18:16;36.43;;;15.90;;
31482;SDS011;18103;52.246;8.052;2023-02-15T12:20:45;36.23;;;15.20;;
31482;SDS011;18103;52.246;8.052;2023-02-15T12:23:14;35.37;;;15.23;;
31482;SDS011;18103;52.246;8.052;2023-02-15T12:25:53;38.20;;;16.57;;
31482;SDS011;18103;52.246;8.052;2023-02-15T12:28:30;37.07;;;15.33;;
31482;SDS011;18103;52.246;8.052;2023-02-15T12:30:59;40.07;;;15.07;;
31482;SDS011;18103;52.246;8.052;2023-02-15T12:36:02;34.33;;;15.00;;
31482;SDS011;18103;52.246;8.052;2023-02-15T12:38:34;40.97;;;14.97;;
31482;SDS011;18103;52.246;8.052;2023-02-15T12:41:02;34.73;;;12.97;;
31482;SDS011;18103;52.246;8.052;2023-02-15T12:46:57;31.40;;;14.20;;
31482;SDS011;18103;52.246;8.052;2023-02-15T12:49:43;29.90;;;12.10;;
31482;SDS011;18103;52.246;8.052;2023-02-15T12:54:44;34.77;;;13.83;;
31482;SDS011;18103;52.246;8.052;2023-02-15T12:59:53;29.60;;;12.40;;
31482;SDS011;18103;52.246;8.052;2023-02-15T13:02:48;31.50;;;13.40;;
31482;SDS011;18103;52.246;8.052;2023-02-15T13:07:49;39.07;;;13.80;;
31482;SDS011;18103;52.246;8.052;2023-02-15T13:10:28;35.03;;;14.03;;
31482;SDS011;18103;52.246;8.052;2023-02-15T13:12:55;33.60;;;13.70;;
31482;SDS011;18103;52.246;8.052;2023-02-15T13:15:23;35.07;;;14.53;;
31482;SDS011;18103;52.246;8.052;2023-02-15T13:17:57;37.07;;;15.57;;
31482;SDS011;18103;52.246;8.052;2023-02-15T13:20:24;35.93;;;14.90;;
31482;SDS011;18103;52.246;8.052;2023-02-15T13:22:53;36.57;;;15.07;;
31482;SDS011;18103;52.246;8.052;2023-02-15T13:25:27;32.63;;;14.63;;
31482;SDS011;18103;52.246;8.052;2023-02-15T13:28:00;42.40;;;14.80;;
31482;SDS011;18103;52.246;8.052;2023-02-15T13:30:28;45.63;;;15.57;;
31482;SDS011;18103;52.246;8.052;2023-02-15T13:33:02;37.20;;;15.47;;
31482;SDS011;18103;52.246;8.052;2023-02-15T13:35:38;32.17;;;14.53;;
31482;SDS011;18103;52.246;8.052;2023-02-15T13:41:04;39.43;;;14.33;;
31482;SDS011;18103;52.246;8.052;2023-02-15T13:43:40;34.87;;;15.43;;
31482;SDS011;18103;52.246;8.052;2023-02-15T13:52:20;33.87;;;14.23;;
31482;SDS011;18103;52.246;8.052;2023-02-15T14:11:51;35.10;;;13.47;;
31482;SDS011;18103;52.246;8.052;2023-02-15T14:22:59;36.17;;;13.90;;
31482;SDS011;18103;52.246;8.052;2023-02-15T14:25:36;42.77;;;14.40;;
31482;SDS011;18103;52.246;8.052;2023-02-15T14:28:22;34.37;;;14.67;;
31482;SDS011;18103;52.246;8.052;2023-02-15T14:31:08;24.33;;;12.33;;
31482;SDS011;18103;52.246;8.052;2023-02-15T14:33:40;34.47;;;13.47;;
31482;SDS011;18103;52.246;8.052;2023-02-15T14:36:13;41.00;;;14.03;;
31482;SDS011;18103;52.246;8.052;2023-02-15T14:39:02;38.83;;;14.30;;
31482;SDS011;18103;52.246;8.052;2023-02-15T14:42:03;35.73;;;12.80;;
31482;SDS011;18103;52.246;8.052;2023-02-15T14:44:37;33.47;;;13.50;;
31482;SDS011;18103;52.246;8.052;2023-02-15T14:47:12;30.67;;;12.97;;
31482;SDS011;18103;52.246;8.052;2023-02-15T14:49:51;33.90;;;13.10;;
31482;SDS011;18103;52.246;8.052;2023-02-15T14:52:17;34.60;;;12.67;;
31482;SDS011;18103;52.246;8.052;2023-02-15T15:08:01;32.00;;;13.00;;
31482;SDS011;18103;52.246;8.052;2023-02-15T15:10:39;33.90;;;12.70;;
31482;SDS011;18103;52.246;8.052;2023-02-15T15:19:01;26.47;;;10.83;;
31482;SDS011;18103;52.246;8.052;2023-02-15T15:32:44;31.23;;;12.00;;
31482;SDS011;18103;52.246;8.052;2023-02-15T15:35:33;36.17;;;13.80;;
31482;SDS011;18103;52.246;8.052;2023-02-15T15:43:55;33.57;;;13.20;;
31482;SDS011;18103;52.246;8.052;2023-02-15T15:49:17;27.97;;;12.97;;
31482;SDS011;18103;52.246;8.052;2023-02-15T15:51:45;31.93;;;13.83;;
31482;SDS011;18103;52.246;8.052;2023-02-15T15:54:14;30.80;;;12.83;;
31482;SDS011;18103;52.246;8.052;2023-02-15T15:56:47;36.40;;;14.83;;
31482;SDS011;18103;52.246;8.052;2023-02-15T15:59:21;31.93;;;14.03;;
31482;SDS011;18103;52.246;8.052;2023-02-15T16:01:49;27.87;;;13.20;;
31482;SDS011;18103;52.246;8.052;2023-02-15T16:04:28;36.47;;;14.37;;
31482;SDS011;18103;52.246;8.052;2023-02-15T16:06:56;32.83;;;14.10;;
31482;SDS011;18103;52.246;8.052;2023-02-15T16:09:26;32.90;;;14.10;;
31482;SDS011;18103;52.246;8.052;2023-02-15T16:11:53;33.73;;;14.13;;
31482;SDS011;18103;52.246;8.052;2023-02-15T16:14:26;27.47;;;13.60;;
31482;SDS011;18103;52.246;8.052;2023-02-15T16:16:59;33.77;;;12.97;;
31482;SDS011;18103;52.246;8.052;2023-02-15T16:19:28;31.37;;;13.00;;
31482;SDS011;18103;52.246;8.052;2023-02-15T16:21:57;29.37;;;12.67;;
31482;SDS011;18103;52.246;8.052;2023-02-15T16:25:11;33.07;;;12.87;;
31482;SDS011;18103;52.246;8.052;2023-02-15T16:29:57;34.97;;;12.57;;
31482;SDS011;18103;52.246;8.052;2023-02-15T16:32:26;36.17;;;13.77;;
31482;SDS011;18103;52.246;8.052;2023-02-15T16:35:00;31.70;;;13.47;;
31482;SDS011;18103;52.246;8.052;2023-02-15T16:37:28;35.93;;;14.47;;
31482;SDS011;18103;52.246;8.052;2023-02-15T16:39:57;30.73;;;12.23;;
31482;SDS011;18103;52.246;8.052;2023-02-15T16:42:23;35.97;;;12.80;;
31482;SDS011;18103;52.246;8.052;2023-02-15T16:44:56;31.13;;;13.07;;
31482;SDS011;18103;52.246;8.052;2023-02-15T16:47:23;32.83;;;13.67;;
31482;SDS011;18103;52.246;8.052;2023-02-15T16:49:51;35.43;;;12.20;;
31482;SDS011;18103;52.246;8.052;2023-02-15T16:52:22;30.37;;;12.83;;
31482;SDS011;18103;52.246;8.052;2023-02-15T16:54:51;27.87;;;13.30;;
31482;SDS011;18103;52.246;8.052;2023-02-15T16:57:21;34.53;;;12.87;;
31482;SDS011;18103;52.246;8.052;2023-02-15T16:59:49;36.57;;;13.27;;
31482;SDS011;18103;52.246;8.052;2023-02-15T17:02:21;30.73;;;14.07;;
31482;SDS011;18103;52.246;8.052;2023-02-15T17:07:39;40.50;;;14.90;;
31482;SDS011;18103;52.246;8.052;2023-02-15T17:10:25;33.63;;;13.57;;
31482;SDS011;18103;52.246;8.052;2023-02-15T17:12:56;35.63;;;14.23;;
31482;SDS011;18103;52.246;8.052;2023-02-15T17:18:12;29.57;;;13.10;;
31482;SDS011;18103;52.246;8.052;2023-02-15T17:20:41;27.70;;;13.07;;
31482;SDS011;18103;52.246;8.052;2023-02-15T17:23:20;37.23;;;13.47;;
31482;SDS011;18103;52.246;8.052;2023-02-15T17:25:52;31.93;;;13.73;;
31482;SDS011;18103;52.246;8.052;2023-02-15T17:28:22;35.30;;;14.13;;
31482;SDS011;18103;52.246;8.052;2023-02-15T17:30:50;32.43;;;13.67;;
31482;SDS011;18103;52.246;8.052;2023-02-15T17:33:50;31.07;;;13.07;;
31482;SDS011;18103;52.246;8.052;2023-02-15T17:36:18;39.60;;;14.10;;
31482;SDS011;18103;52.246;8.052;2023-02-15T17:41:23;27.43;;;12.67;;
31482;SDS011;18103;52.246;8.052;2023-02-15T17:43:55;33.20;;;13.60;;
31482;SDS011;18103;52.246;8.052;2023-02-15T17:46:22;32.37;;;13.43;;
31482;SDS011;18103;52.246;8.052;2023-02-15T17:48:50;28.77;;;12.93;;
31482;SDS011;18103;52.246;8.052;2023-02-15T17:51:18;33.93;;;13.50;;
31482;SDS011;18103;52.246;8.052;2023-02-15T17:53:44;26.93;;;11.27;;
31482;SDS011;18103;52.246;8.052;2023-02-15T17:56:31;30.87;;;13.33;;
31482;SDS011;18103;52.246;8.052;2023-02-15T17:58:57;35.13;;;13.23;;
31482;SDS011;18103;52.246;8.052;2023-02-15T18:01:22;31.13;;;12.37;;
31482;SDS011;18103;52.246;8.052;2023-02-15T18:04:13;37.43;;;14.13;;
31482;SDS011;18103;52.246;8.052;2023-02-15T18:06:58;33.70;;;12.60;;
31482;SDS011;18103;52.246;8.052;2023-02-15T18:09:42;29.67;;;12.63;;
31482;SDS011;18103;52.246;8.052;2023-02-15T18:12:28;47.73;;;17.90;;
31482;SDS011;18103;52.246;8.052;2023-02-15T18:14:55;98.77;;;35.97;;
31482;SDS011;18103;52.246;8.052;2023-02-15T18:17:23;77.00;;;30.20;;